createdAt,value
2018-08-30T00:01:21.211Z,18.87
2018-08-30T00:03:50.888Z,18.85
2018-08-30T00:06:20.599Z,18.82
2018-08-30T00:08:50.243Z,18.83
2018-08-30T00:11:20.148Z,18.80
2018-08-30T00:13:49.874Z,18.77
2018-08-30T00:16:20.069Z,18.75
2018-08-30T00:18:49.895Z,18.74
2018-08-30T00:21:19.657Z,18.71
2018-08-30T00:23:49.480Z,18.68
2018-08-30T00:26:19.302Z,18.64
2018-08-30T00:28:48.950Z,18.62
2018-08-30T00:31:18.649Z,18.58
2018-08-30T00:33:48.357Z,18.55
2018-08-30T00:36:18.091Z,18.50
2018-08-30T00:38:47.776Z,18.46
2018-08-30T00:41:17.580Z,18.45
2018-08-30T00:43:47.299Z,18.40
2018-08-30T00:46:17.079Z,18.36
2018-08-30T00:48:46.807Z,18.33
2018-08-30T00:51:16.566Z,18.29
2018-08-30T00:53:46.384Z,18.25
2018-08-30T00:56:16.279Z,18.21
2018-08-30T00:58:45.991Z,18.18
2018-08-30T01:01:15.709Z,18.14
2018-08-30T01:03:45.392Z,18.11
2018-08-30T01:06:15.168Z,18.06
2018-08-30T01:08:44.913Z,18.01
2018-08-30T01:11:14.608Z,17.95
2018-08-30T01:13:44.402Z,17.91
2018-08-30T01:16:14.073Z,17.88
2018-08-30T01:18:43.755Z,17.84
2018-08-30T01:21:13.231Z,17.78
2018-08-30T01:23:42.682Z,17.74
2018-08-30T01:26:12.138Z,17.70
2018-08-30T01:28:41.611Z,17.64
2018-08-30T01:31:11.035Z,17.60
2018-08-30T01:33:40.493Z,17.55
2018-08-30T01:36:10.022Z,17.52
2018-08-30T01:38:39.417Z,17.50
2018-08-30T01:41:09.160Z,17.50
2018-08-30T01:43:38.590Z,17.49
2018-08-30T01:46:08.019Z,17.47
2018-08-30T01:48:37.473Z,17.45
2018-08-30T01:51:07.003Z,17.47
2018-08-30T01:53:36.502Z,17.43
2018-08-30T01:56:05.962Z,17.43
2018-08-30T01:58:35.464Z,17.42
2018-08-30T02:01:04.854Z,17.40
2018-08-30T02:03:34.245Z,17.38
2018-08-30T02:06:03.622Z,17.34
2018-08-30T02:08:32.995Z,17.30
2018-08-30T02:11:02.478Z,17.26
2018-08-30T02:13:31.849Z,17.24
2018-08-30T02:16:01.262Z,17.22
2018-08-30T02:18:30.657Z,17.17
2018-08-30T02:21:00.027Z,17.16
2018-08-30T02:23:29.436Z,17.13
2018-08-30T02:25:58.888Z,17.13
2018-08-30T02:28:28.278Z,17.09
2018-08-30T02:30:57.627Z,17.07
2018-08-30T02:33:27.054Z,17.03
2018-08-30T02:35:56.503Z,17.00
2018-08-30T02:38:25.874Z,16.99
2018-08-30T02:40:55.292Z,16.97
2018-08-30T02:43:24.699Z,16.92
2018-08-30T02:45:54.110Z,16.91
2018-08-30T02:48:23.640Z,16.89
2018-08-30T02:50:52.992Z,16.86
2018-08-30T02:53:22.391Z,16.84
2018-08-30T02:55:51.785Z,16.84
2018-08-30T02:58:21.159Z,16.82
2018-08-30T03:00:53.530Z,16.82
2018-08-30T03:03:22.931Z,16.82
2018-08-30T03:05:52.336Z,16.80
2018-08-30T03:08:21.718Z,16.78
2018-08-30T03:10:51.212Z,16.74
2018-08-30T03:13:20.597Z,16.74
2018-08-30T03:15:49.986Z,16.72
2018-08-30T03:18:19.394Z,16.72
2018-08-30T03:20:48.801Z,16.71
2018-08-30T03:23:18.179Z,16.71
2018-08-30T03:25:47.852Z,16.72
2018-08-30T03:28:17.258Z,16.72
2018-08-30T03:30:46.790Z,16.77
2018-08-30T03:33:16.147Z,16.80
2018-08-30T03:35:45.557Z,16.81
2018-08-30T03:38:15.018Z,16.83
2018-08-30T03:40:44.473Z,16.82
2018-08-30T03:43:14.199Z,16.80
2018-08-30T03:45:43.578Z,16.79
2018-08-30T03:48:12.986Z,16.77
2018-08-30T03:50:42.596Z,16.76
2018-08-30T03:53:11.954Z,16.77
2018-08-30T03:55:41.406Z,16.81
2018-08-30T03:58:10.806Z,16.85
2018-08-30T04:00:40.224Z,16.90
2018-08-30T04:03:09.625Z,16.96
2018-08-30T04:05:39.016Z,17.01
2018-08-30T04:08:08.361Z,17.04
2018-08-30T04:10:37.923Z,17.05
2018-08-30T04:13:07.281Z,17.04
2018-08-30T04:15:36.691Z,17.00
2018-08-30T04:18:06.189Z,16.98
2018-08-30T04:20:35.590Z,16.97
2018-08-30T04:23:05.057Z,16.96
2018-08-30T04:25:34.644Z,16.99
2018-08-30T04:28:04.028Z,17.04
2018-08-30T04:30:33.446Z,17.11
2018-08-30T04:33:02.888Z,17.19
2018-08-30T04:35:32.287Z,17.27
2018-08-30T04:38:01.666Z,17.39
2018-08-30T04:40:31.295Z,17.48
2018-08-30T04:43:00.645Z,17.61
2018-08-30T04:45:30.127Z,17.72
2018-08-30T04:48:00.009Z,17.82
2018-08-30T04:50:29.382Z,17.91
2018-08-30T04:52:58.770Z,17.97
2018-08-30T04:55:28.199Z,18.11
2018-08-30T04:57:57.580Z,18.46
2018-08-30T05:00:26.996Z,18.87
2018-08-30T05:02:56.359Z,19.19
2018-08-30T05:05:25.823Z,19.42
2018-08-30T05:07:55.378Z,19.66
2018-08-30T05:10:24.803Z,19.80
2018-08-30T05:12:54.223Z,19.87
2018-08-30T05:15:23.643Z,19.88
2018-08-30T05:17:53.243Z,19.91
2018-08-30T05:20:22.631Z,19.80
2018-08-30T05:22:52.018Z,19.63
2018-08-30T05:25:21.419Z,19.51
2018-08-30T05:27:50.749Z,19.43
2018-08-30T05:30:20.140Z,19.30
2018-08-30T05:32:49.526Z,19.20
2018-08-30T05:35:18.893Z,19.13
2018-08-30T05:37:48.291Z,19.05
2018-08-30T05:40:17.702Z,18.99
2018-08-30T05:42:47.073Z,18.94
2018-08-30T05:45:16.458Z,18.94
2018-08-30T05:47:45.901Z,18.94
2018-08-30T05:50:22.090Z,18.96
2018-08-30T05:52:51.664Z,18.97
2018-08-30T05:55:21.035Z,18.98
2018-08-30T05:57:50.443Z,18.99
2018-08-30T06:00:19.946Z,19.07
2018-08-30T06:02:49.338Z,19.14
2018-08-30T06:05:18.698Z,19.19
2018-08-30T06:07:48.142Z,19.27
2018-08-30T06:10:17.506Z,19.36
2018-08-30T06:12:46.911Z,19.44
2018-08-30T06:15:16.329Z,19.55
2018-08-30T06:17:45.744Z,19.72
2018-08-30T06:20:15.099Z,19.88
2018-08-30T06:22:44.502Z,20.05
2018-08-30T06:25:13.890Z,20.27
2018-08-30T06:27:43.280Z,20.46
2018-08-30T06:30:12.890Z,20.60
2018-08-30T06:32:42.365Z,20.67
2018-08-30T06:35:11.750Z,20.71
2018-08-30T06:37:41.146Z,20.71
2018-08-30T06:40:10.607Z,20.72
2018-08-30T06:42:40.068Z,20.73
2018-08-30T06:45:09.524Z,20.76
2018-08-30T06:47:38.966Z,20.84
2018-08-30T06:50:08.365Z,20.88
2018-08-30T06:52:37.818Z,20.98
2018-08-30T06:55:07.255Z,21.05
2018-08-30T06:57:36.661Z,21.11
2018-08-30T07:00:06.559Z,21.15
2018-08-30T07:02:35.938Z,21.19
2018-08-30T07:05:05.538Z,21.17
2018-08-30T07:07:35.002Z,21.13
2018-08-30T07:10:04.443Z,21.08
2018-08-30T07:12:33.850Z,20.96
2018-08-30T07:15:03.543Z,20.78
2018-08-30T07:17:32.906Z,20.57
2018-08-30T07:20:02.303Z,20.36
2018-08-30T07:22:31.990Z,20.19
2018-08-30T07:25:01.347Z,20.11
2018-08-30T07:27:30.736Z,20.05
2018-08-30T07:30:00.134Z,20.07
2018-08-30T07:32:29.506Z,20.12
2018-08-30T07:34:59.042Z,20.20
2018-08-30T07:37:28.294Z,20.28
2018-08-30T07:39:57.657Z,20.36
2018-08-30T07:42:27.047Z,20.35
2018-08-30T07:44:56.455Z,20.32
2018-08-30T07:47:25.810Z,20.34
2018-08-30T07:49:55.370Z,20.34
2018-08-30T07:52:24.852Z,20.37
2018-08-30T07:54:54.235Z,20.43
2018-08-30T07:57:23.706Z,20.54
2018-08-30T07:59:53.275Z,20.59
2018-08-30T08:02:22.594Z,20.66
2018-08-30T08:04:51.988Z,20.66
2018-08-30T08:07:21.495Z,20.63
2018-08-30T08:09:50.855Z,20.59
2018-08-30T08:12:20.347Z,20.59
2018-08-30T08:14:49.766Z,20.57
2018-08-30T08:17:19.214Z,20.50
2018-08-30T08:19:48.656Z,20.31
2018-08-30T08:22:18.381Z,20.15
2018-08-30T08:24:47.828Z,19.99
2018-08-30T08:27:17.186Z,19.91
2018-08-30T08:29:46.798Z,19.89
2018-08-30T08:32:16.247Z,19.87
2018-08-30T08:34:45.670Z,19.84
2018-08-30T08:37:15.086Z,19.79
2018-08-30T08:39:44.577Z,19.71
2018-08-30T08:42:13.991Z,19.64
2018-08-30T08:44:43.440Z,19.56
2018-08-30T08:47:12.943Z,19.50
2018-08-30T08:49:42.432Z,19.46
2018-08-30T08:52:11.827Z,19.42
2018-08-30T08:54:41.224Z,19.40
2018-08-30T08:57:10.623Z,19.43
2018-08-30T08:59:40.332Z,19.45
2018-08-30T09:02:09.739Z,19.54
2018-08-30T09:04:39.139Z,19.66
2018-08-30T09:07:08.629Z,19.83
2018-08-30T09:09:37.979Z,20.00
2018-08-30T09:12:07.407Z,20.15
2018-08-30T09:14:36.830Z,20.31
2018-08-30T09:17:06.287Z,20.48
2018-08-30T09:19:35.665Z,20.58
2018-08-30T09:22:05.910Z,20.69
2018-08-30T09:24:35.288Z,20.72
2018-08-30T09:27:05.044Z,20.66
2018-08-30T09:29:34.383Z,20.48
2018-08-30T09:32:03.778Z,20.29
2018-08-30T09:34:33.189Z,20.08
2018-08-30T09:37:02.623Z,19.93
2018-08-30T09:39:31.987Z,19.85
2018-08-30T09:42:01.346Z,19.83
2018-08-30T09:44:30.806Z,19.82
2018-08-30T09:47:00.178Z,19.80
2018-08-30T09:49:29.640Z,19.78
2018-08-30T09:51:58.966Z,19.69
2018-08-30T09:54:28.551Z,19.67
2018-08-30T09:56:58.031Z,19.65
2018-08-30T09:59:27.363Z,19.61
2018-08-30T10:02:02.167Z,19.62
2018-08-30T10:04:31.694Z,19.66
2018-08-30T10:07:01.067Z,19.65
2018-08-30T10:09:30.469Z,19.58
2018-08-30T10:12:06.371Z,19.55
2018-08-30T10:14:35.697Z,19.55
2018-08-30T10:17:05.071Z,19.56
2018-08-30T10:19:34.453Z,19.60
2018-08-30T10:22:03.881Z,19.64
2018-08-30T10:24:33.266Z,19.68
2018-08-30T10:27:02.660Z,19.76
2018-08-30T10:29:32.067Z,19.81
2018-08-30T10:32:01.447Z,19.85
2018-08-30T10:34:30.874Z,19.83
2018-08-30T10:37:00.295Z,19.82
2018-08-30T10:39:29.602Z,19.89
2018-08-30T10:41:59.063Z,19.95
2018-08-30T10:44:28.587Z,19.94
2018-08-30T10:46:58.075Z,19.90
2018-08-30T10:49:27.643Z,19.86
2018-08-30T10:51:57.028Z,19.81
2018-08-30T10:54:26.463Z,19.80
2018-08-30T10:56:55.870Z,19.84
2018-08-30T10:59:25.303Z,19.94
2018-08-30T11:01:54.738Z,20.10
2018-08-30T11:04:24.257Z,20.22
2018-08-30T11:06:53.558Z,20.27
2018-08-30T11:09:22.944Z,20.27
2018-08-30T11:11:52.359Z,20.22
2018-08-30T11:14:21.783Z,20.13
2018-08-30T11:16:51.186Z,20.02
2018-08-30T11:19:20.590Z,19.90
2018-08-30T11:21:49.968Z,19.80
2018-08-30T11:24:19.354Z,19.67
2018-08-30T11:26:48.734Z,19.58
2018-08-30T11:29:18.121Z,19.53
2018-08-30T11:31:47.579Z,19.49
2018-08-30T11:34:16.978Z,19.46
2018-08-30T11:36:46.414Z,19.44
2018-08-30T11:39:15.778Z,19.47
2018-08-30T11:41:45.496Z,19.54
2018-08-30T11:44:14.909Z,19.67
2018-08-30T11:46:44.480Z,19.77
2018-08-30T11:49:13.881Z,20.00
2018-08-30T11:51:43.391Z,20.27
2018-08-30T11:54:12.814Z,20.60
2018-08-30T11:56:42.211Z,20.92
2018-08-30T11:59:11.790Z,21.25
2018-08-30T12:01:41.430Z,21.45
2018-08-30T12:04:11.349Z,21.45
2018-08-30T12:06:40.803Z,21.33
2018-08-30T12:09:10.944Z,21.19
2018-08-30T12:11:41.697Z,21.13
2018-08-30T12:14:11.056Z,21.29
2018-08-30T12:16:40.478Z,21.43
2018-08-30T12:19:09.921Z,21.58
2018-08-30T12:21:39.334Z,21.65
2018-08-30T12:24:08.722Z,21.62
2018-08-30T12:26:38.227Z,21.46
2018-08-30T12:29:07.748Z,21.30
2018-08-30T12:31:37.188Z,21.15
2018-08-30T12:34:07.176Z,21.23
2018-08-30T12:36:36.614Z,21.36
2018-08-30T12:39:08.871Z,21.36
2018-08-30T12:41:38.212Z,21.31
2018-08-30T12:44:07.698Z,21.11
2018-08-30T12:46:37.150Z,20.84
2018-08-30T12:49:06.639Z,20.60
2018-08-30T12:51:36.185Z,20.43
2018-08-30T12:54:05.631Z,20.48
2018-08-30T12:56:35.137Z,20.57
2018-08-30T12:59:09.900Z,20.66
2018-08-30T13:01:39.269Z,20.68
2018-08-30T13:04:08.912Z,20.62
2018-08-30T13:06:42.511Z,20.42
2018-08-30T13:09:12.291Z,20.22
2018-08-30T13:11:41.683Z,20.12
2018-08-30T13:14:11.274Z,20.17
2018-08-30T13:16:40.944Z,20.34
2018-08-30T13:19:10.546Z,20.62
2018-08-30T13:21:39.849Z,20.96
2018-08-30T13:24:09.259Z,21.24
2018-08-30T13:26:38.777Z,21.39
2018-08-30T13:29:08.369Z,21.39
2018-08-30T13:31:37.674Z,21.30
2018-08-30T13:34:07.150Z,21.23
2018-08-30T13:36:36.549Z,21.16
2018-08-30T13:39:09.682Z,21.00
2018-08-30T13:41:39.258Z,20.84
2018-08-30T13:44:09.983Z,20.68
2018-08-30T13:46:40.368Z,20.66
2018-08-30T13:49:10.581Z,20.80
2018-08-30T13:51:39.935Z,20.95
2018-08-30T13:54:09.432Z,21.04
2018-08-30T13:56:38.803Z,21.04
2018-08-30T13:59:08.470Z,21.00
2018-08-30T14:01:37.887Z,20.91
2018-08-30T14:04:06.988Z,20.80
2018-08-30T14:06:36.281Z,20.64
2018-08-30T14:09:06.462Z,20.47
2018-08-30T14:11:35.984Z,20.29
2018-08-30T14:14:05.310Z,20.14
2018-08-30T14:16:34.359Z,20.00
2018-08-30T14:19:03.868Z,19.89
2018-08-30T14:21:33.327Z,19.82
2018-08-30T14:24:02.885Z,19.74
2018-08-30T14:26:32.249Z,19.65
2018-08-30T14:29:01.742Z,19.55
2018-08-30T14:31:31.025Z,19.46
2018-08-30T14:34:00.422Z,19.44
2018-08-30T14:36:29.842Z,19.42
2018-08-30T14:38:59.291Z,19.49
2018-08-30T14:41:28.770Z,19.62
2018-08-30T14:43:58.015Z,19.81
2018-08-30T14:46:27.401Z,19.98
2018-08-30T14:48:56.775Z,20.11
2018-08-30T14:51:32.805Z,20.18
2018-08-30T14:54:08.889Z,20.25
2018-08-30T14:56:38.073Z,20.31
2018-08-30T14:59:07.682Z,20.38
2018-08-30T15:01:36.922Z,20.46
2018-08-30T15:04:06.295Z,20.54
2018-08-30T15:06:35.684Z,20.59
2018-08-30T15:09:06.834Z,20.61
2018-08-30T15:11:36.387Z,20.59
2018-08-30T15:14:05.862Z,20.57
2018-08-30T15:16:35.283Z,20.56
2018-08-30T15:19:04.729Z,20.54
2018-08-30T15:21:34.107Z,20.54
2018-08-30T15:24:03.564Z,20.56
2018-08-30T15:26:32.960Z,20.57
2018-08-30T15:29:02.537Z,20.56
2018-08-30T15:31:31.921Z,20.55
2018-08-30T15:34:01.467Z,20.53
2018-08-30T15:36:30.798Z,20.48
2018-08-30T15:39:00.318Z,20.43
2018-08-30T15:41:29.716Z,20.39
2018-08-30T15:43:59.122Z,20.32
2018-08-30T15:46:28.515Z,20.28
2018-08-30T15:48:58.106Z,20.18
2018-08-30T15:51:27.323Z,19.99
2018-08-30T15:53:56.777Z,19.78
2018-08-30T15:56:26.329Z,19.55
2018-08-30T15:58:55.717Z,19.37
2018-08-30T16:01:25.086Z,19.25
2018-08-30T16:03:54.458Z,19.17
2018-08-30T16:06:23.840Z,19.09
2018-08-30T16:08:53.240Z,19.06
2018-08-30T16:11:22.808Z,19.02
2018-08-30T16:13:52.081Z,18.94
2018-08-30T16:16:21.454Z,18.87
2018-08-30T16:18:51.001Z,18.80
2018-08-30T16:21:20.192Z,18.76
2018-08-30T16:23:50.491Z,18.75
2018-08-30T16:26:19.916Z,18.76
2018-08-30T16:28:49.287Z,18.78
2018-08-30T16:31:18.720Z,18.83
2018-08-30T16:33:48.149Z,18.91
2018-08-30T16:36:19.303Z,18.99
2018-08-30T16:38:48.696Z,19.03
2018-08-30T16:41:18.283Z,19.03
2018-08-30T16:43:47.443Z,19.03
2018-08-30T16:46:16.849Z,19.05
2018-08-30T16:48:46.269Z,19.04
2018-08-30T16:51:15.618Z,19.02
2018-08-30T16:53:45.022Z,18.99
2018-08-30T16:56:14.531Z,18.94
2018-08-30T16:58:43.908Z,18.88
2018-08-30T17:01:13.314Z,18.82
2018-08-30T17:03:42.841Z,18.80
2018-08-30T17:06:12.197Z,18.78
2018-08-30T17:08:41.889Z,18.76
2018-08-30T17:11:11.242Z,18.71
2018-08-30T17:13:40.610Z,18.66
2018-08-30T17:16:10.059Z,18.63
2018-08-30T17:18:40.073Z,18.56
2018-08-30T17:21:09.559Z,18.53
2018-08-30T17:23:38.904Z,18.47
2018-08-30T17:26:08.287Z,18.38
2018-08-30T17:28:37.774Z,18.26
2018-08-30T17:31:07.332Z,18.13
2018-08-30T17:33:36.706Z,18.01
2018-08-30T17:36:07.782Z,17.88
2018-08-30T17:38:38.522Z,17.75
2018-08-30T17:41:07.979Z,17.66
2018-08-30T17:43:37.411Z,17.60
2018-08-30T17:46:06.876Z,17.53
2018-08-30T17:48:36.300Z,17.44
2018-08-30T17:51:05.763Z,17.35
2018-08-30T17:53:35.302Z,17.26
2018-08-30T17:56:04.964Z,17.19
2018-08-30T17:58:34.265Z,17.11
2018-08-30T18:01:03.660Z,17.06
2018-08-30T18:03:33.124Z,17.02
2018-08-30T18:06:02.578Z,16.98
2018-08-30T18:08:32.035Z,16.94
2018-08-30T18:11:01.989Z,16.90
2018-08-30T18:13:31.414Z,16.88
2018-08-30T18:16:00.876Z,16.87
2018-08-30T18:18:30.339Z,16.85
2018-08-30T18:20:59.757Z,16.83
2018-08-30T18:23:29.198Z,16.82
2018-08-30T18:25:58.598Z,16.82
2018-08-30T18:28:27.974Z,16.80
2018-08-30T18:30:57.477Z,16.79
2018-08-30T18:33:26.870Z,16.78
2018-08-30T18:35:56.314Z,16.79
2018-08-30T18:38:25.899Z,16.75
2018-08-30T18:40:55.326Z,16.74
2018-08-30T18:43:24.846Z,16.74
2018-08-30T18:45:54.262Z,16.72
2018-08-30T18:48:23.754Z,16.74
2018-08-30T18:50:53.157Z,16.74
2018-08-30T18:53:22.719Z,16.75
2018-08-30T18:55:52.294Z,16.77
2018-08-30T18:58:21.730Z,16.76
2018-08-30T19:00:51.224Z,16.79
2018-08-30T19:03:20.804Z,16.80
2018-08-30T19:05:50.262Z,16.80
2018-08-30T19:08:19.670Z,16.80
2018-08-30T19:10:49.074Z,16.80
2018-08-30T19:13:18.494Z,16.80
2018-08-30T19:15:53.372Z,16.78
2018-08-30T19:18:28.080Z,16.78
2018-08-30T19:20:58.112Z,16.77
2018-08-30T19:23:27.474Z,16.78
2018-08-30T19:25:56.906Z,16.78
2018-08-30T19:28:26.338Z,16.78
2018-08-30T19:30:55.765Z,16.79
2018-08-30T19:33:25.358Z,16.79
2018-08-30T19:36:58.751Z,16.79
2018-08-30T19:39:28.199Z,16.76
2018-08-30T19:41:57.662Z,16.75
2018-08-30T19:44:27.425Z,16.75
2018-08-30T19:46:56.830Z,16.74
2018-08-30T19:49:26.234Z,16.72
2018-08-30T19:51:55.646Z,16.71
2018-08-30T19:54:25.082Z,16.70
2018-08-30T19:56:54.649Z,16.70
2018-08-30T19:59:24.339Z,16.68
2018-08-30T20:02:25.005Z,16.68
2018-08-30T20:04:54.367Z,16.65
2018-08-30T20:07:23.807Z,16.63
2018-08-30T20:09:53.168Z,16.63
2018-08-30T20:12:22.657Z,16.62
2018-08-30T20:14:52.130Z,16.58
2018-08-30T20:17:21.634Z,16.58
2018-08-30T20:19:51.197Z,16.57
2018-08-30T20:22:20.691Z,16.56
2018-08-30T20:24:50.062Z,16.55
2018-08-30T20:27:19.611Z,16.55
2018-08-30T20:29:49.096Z,16.54
2018-08-30T20:32:18.716Z,16.54
2018-08-30T20:34:48.484Z,16.53
2018-08-30T20:37:17.927Z,16.52
2018-08-30T20:39:47.646Z,16.53
2018-08-30T20:42:17.051Z,16.53
2018-08-30T20:44:46.422Z,16.55
2018-08-30T20:47:15.921Z,16.54
2018-08-30T20:49:45.456Z,16.54
2018-08-30T20:52:14.938Z,16.53
2018-08-30T20:54:44.474Z,16.52
2018-08-30T20:57:14.415Z,16.52
2018-08-30T20:59:43.821Z,16.52
2018-08-30T21:02:13.479Z,16.52
2018-08-30T21:04:42.890Z,16.53
2018-08-30T21:07:12.284Z,16.54
2018-08-30T21:09:41.658Z,16.53
2018-08-30T21:12:11.057Z,16.54
2018-08-30T21:14:40.403Z,16.55
2018-08-30T21:17:09.791Z,16.54
2018-08-30T21:19:40.165Z,16.53
2018-08-30T21:22:09.603Z,16.51
2018-08-30T21:24:38.983Z,16.50
2018-08-30T21:27:08.378Z,16.48
2018-08-30T21:29:37.755Z,16.48
2018-08-30T21:32:07.210Z,16.47
2018-08-30T21:34:36.578Z,16.47
2018-08-30T21:37:06.179Z,16.46
2018-08-30T21:39:35.729Z,16.45
2018-08-30T21:42:05.145Z,16.44
2018-08-30T21:44:34.564Z,16.44
2018-08-30T21:47:04.004Z,16.42
2018-08-30T21:49:33.451Z,16.39
2018-08-30T21:52:02.838Z,16.36
2018-08-30T21:54:32.275Z,16.34
2018-08-30T21:57:01.822Z,16.29
2018-08-30T21:59:31.224Z,16.25
2018-08-30T22:02:00.795Z,16.23
2018-08-30T22:04:30.677Z,16.23
2018-08-30T22:07:00.040Z,16.22
2018-08-30T22:09:29.415Z,16.20
2018-08-30T22:11:58.847Z,16.18
2018-08-30T22:14:28.257Z,16.17
2018-08-30T22:16:57.619Z,16.17
2018-08-30T22:19:27.015Z,16.14
2018-08-30T22:21:56.424Z,16.12
2018-08-30T22:24:25.901Z,16.12
2018-08-30T22:26:55.279Z,16.11
2018-08-30T22:29:24.659Z,16.10
2018-08-30T22:31:54.041Z,16.10
2018-08-30T22:34:23.490Z,16.09
2018-08-30T22:36:52.864Z,16.07
2018-08-30T22:39:22.245Z,16.06
2018-08-30T22:41:51.647Z,16.03
2018-08-30T22:44:21.037Z,16.02
2018-08-30T22:46:50.413Z,16.00
2018-08-30T22:49:19.829Z,15.97
2018-08-30T22:51:49.278Z,15.97
2018-08-30T22:54:18.718Z,15.93
2018-08-30T22:56:48.142Z,15.91
2018-08-30T22:59:17.531Z,15.87
2018-08-30T23:01:46.915Z,15.83
2018-08-30T23:04:16.402Z,15.77
2018-08-30T23:06:45.939Z,15.72
2018-08-30T23:09:15.238Z,15.69
2018-08-30T23:11:44.622Z,15.62
2018-08-30T23:14:14.074Z,15.59
2018-08-30T23:16:43.434Z,15.56
2018-08-30T23:19:12.819Z,15.55
2018-08-30T23:21:42.204Z,15.53
2018-08-30T23:24:11.651Z,15.52
2018-08-30T23:26:41.105Z,15.49
2018-08-30T23:29:10.493Z,15.45
2018-08-30T23:31:40.039Z,15.41
2018-08-30T23:34:09.633Z,15.37
2018-08-30T23:36:39.260Z,15.32
2018-08-30T23:39:10.980Z,15.28
2018-08-30T23:41:40.406Z,15.22
2018-08-30T23:44:10.215Z,15.16
2018-08-30T23:46:39.946Z,15.09
2018-08-30T23:49:09.309Z,15.03
2018-08-30T23:51:38.665Z,15.00
2018-08-30T23:54:08.447Z,14.96
2018-08-30T23:56:38.011Z,14.92
2018-08-30T23:59:24.546Z,14.89
